sensor_id;sensor_type;location;lat;lon;timestamp;P1;durP1;ratioP1;P2;durP2;ratioP2
51913;SDS011;37940;53.002;6.930;2022-07-01T00:02:07;5.00;;;1.60;;
51913;SDS011;37940;53.002;6.930;2022-07-01T00:04:33;8.05;;;1.80;;
51913;SDS011;37940;53.002;6.930;2022-07-01T00:06:58;4.47;;;1.73;;
51913;SDS011;37940;53.002;6.930;2022-07-01T00:09:24;5.88;;;1.90;;
51913;SDS011;37940;53.002;6.930;2022-07-01T00:11:50;5.40;;;1.60;;
51913;SDS011;37940;53.002;6.930;2022-07-01T00:14:16;6.00;;;1.95;;
51913;SDS011;37940;53.002;6.930;2022-07-01T00:16:42;5.10;;;1.73;;
51913;SDS011;37940;53.002;6.930;2022-07-01T00:19:07;5.72;;;1.88;;
51913;SDS011;37940;53.002;6.930;2022-07-01T00:21:34;4.95;;;1.52;;
51913;SDS011;37940;53.002;6.930;2022-07-01T00:24:00;8.98;;;1.90;;
51913;SDS011;37940;53.002;6.930;2022-07-01T00:26:25;5.15;;;1.60;;
51913;SDS011;37940;53.002;6.930;2022-07-01T00:28:51;5.53;;;1.83;;
51913;SDS011;37940;53.002;6.930;2022-07-01T00:31:17;6.15;;;2.03;;
51913;SDS011;37940;53.002;6.930;2022-07-01T00:33:42;3.65;;;1.48;;
51913;SDS011;37940;53.002;6.930;2022-07-01T00:36:08;3.55;;;1.42;;
51913;SDS011;37940;53.002;6.930;2022-07-01T00:38:34;5.03;;;2.00;;
51913;SDS011;37940;53.002;6.930;2022-07-01T00:40:59;6.40;;;1.58;;
51913;SDS011;37940;53.002;6.930;2022-07-01T00:43:25;3.55;;;1.63;;
51913;SDS011;37940;53.002;6.930;2022-07-01T00:45:51;4.07;;;1.52;;
51913;SDS011;37940;53.002;6.930;2022-07-01T00:48:21;5.78;;;1.75;;
51913;SDS011;37940;53.002;6.930;2022-07-01T00:50:47;5.57;;;1.60;;
51913;SDS011;37940;53.002;6.930;2022-07-01T00:53:14;4.03;;;1.70;;
51913;SDS011;37940;53.002;6.930;2022-07-01T00:55:40;6.53;;;1.70;;
51913;SDS011;37940;53.002;6.930;2022-07-01T00:58:07;5.38;;;1.80;;
51913;SDS011;37940;53.002;6.930;2022-07-01T01:00:34;5.10;;;1.63;;
51913;SDS011;37940;53.002;6.930;2022-07-01T01:03:00;5.22;;;1.75;;
51913;SDS011;37940;53.002;6.930;2022-07-01T01:05:26;4.07;;;1.55;;
51913;SDS011;37940;53.002;6.930;2022-07-01T01:07:52;4.50;;;1.80;;
51913;SDS011;37940;53.002;6.930;2022-07-01T01:10:18;2.63;;;1.50;;
51913;SDS011;37940;53.002;6.930;2022-07-01T01:12:44;3.83;;;1.55;;
51913;SDS011;37940;53.002;6.930;2022-07-01T01:15:10;4.10;;;1.77;;
51913;SDS011;37940;53.002;6.930;2022-07-01T01:17:43;3.47;;;1.67;;
51913;SDS011;37940;53.002;6.930;2022-07-01T01:20:14;4.43;;;1.80;;
51913;SDS011;37940;53.002;6.930;2022-07-01T01:22:40;2.70;;;1.50;;
51913;SDS011;37940;53.002;6.930;2022-07-01T01:25:06;5.03;;;1.67;;
51913;SDS011;37940;53.002;6.930;2022-07-01T01:27:32;3.35;;;1.60;;
51913;SDS011;37940;53.002;6.930;2022-07-01T01:29:58;3.00;;;1.50;;
51913;SDS011;37940;53.002;6.930;2022-07-01T01:32:23;2.88;;;1.13;;
51913;SDS011;37940;53.002;6.930;2022-07-01T01:34:49;2.47;;;1.35;;
51913;SDS011;37940;53.002;6.930;2022-07-01T01:37:15;2.55;;;1.30;;
51913;SDS011;37940;53.002;6.930;2022-07-01T01:39:40;2.78;;;1.30;;
51913;SDS011;37940;53.002;6.930;2022-07-01T01:42:06;4.75;;;1.30;;
51913;SDS011;37940;53.002;6.930;2022-07-01T01:44:32;3.70;;;1.20;;
51913;SDS011;37940;53.002;6.930;2022-07-01T01:46:58;4.25;;;1.20;;
51913;SDS011;37940;53.002;6.930;2022-07-01T01:49:24;2.65;;;1.33;;
51913;SDS011;37940;53.002;6.930;2022-07-01T01:51:49;1.77;;;1.17;;
51913;SDS011;37940;53.002;6.930;2022-07-01T01:54:15;3.35;;;1.35;;
51913;SDS011;37940;53.002;6.930;2022-07-01T01:56:41;2.38;;;1.17;;
51913;SDS011;37940;53.002;6.930;2022-07-01T01:59:06;5.07;;;1.67;;
51913;SDS011;37940;53.002;6.930;2022-07-01T02:01:32;2.38;;;1.30;;
51913;SDS011;37940;53.002;6.930;2022-07-01T02:03:58;5.38;;;1.25;;
51913;SDS011;37940;53.002;6.930;2022-07-01T02:06:24;2.50;;;1.25;;
51913;SDS011;37940;53.002;6.930;2022-07-01T02:08:50;2.65;;;1.20;;
51913;SDS011;37940;53.002;6.930;2022-07-01T02:11:16;2.25;;;1.33;;
51913;SDS011;37940;53.002;6.930;2022-07-01T02:13:42;2.70;;;1.25;;
51913;SDS011;37940;53.002;6.930;2022-07-01T02:16:09;1.80;;;1.10;;
51913;SDS011;37940;53.002;6.930;2022-07-01T02:18:35;3.50;;;1.50;;
51913;SDS011;37940;53.002;6.930;2022-07-01T02:21:01;3.05;;;1.25;;
51913;SDS011;37940;53.002;6.930;2022-07-01T02:23:27;3.95;;;1.30;;
51913;SDS011;37940;53.002;6.930;2022-07-01T02:25:54;2.60;;;1.30;;
51913;SDS011;37940;53.002;6.930;2022-07-01T02:28:20;1.77;;;1.05;;
51913;SDS011;37940;53.002;6.930;2022-07-01T02:30:46;3.20;;;1.25;;
51913;SDS011;37940;53.002;6.930;2022-07-01T02:33:11;2.63;;;1.23;;
51913;SDS011;37940;53.002;6.930;2022-07-01T02:35:38;2.58;;;1.25;;
51913;SDS011;37940;53.002;6.930;2022-07-01T02:38:06;1.85;;;1.20;;
51913;SDS011;37940;53.002;6.930;2022-07-01T02:40:33;1.58;;;1.40;;
51913;SDS011;37940;53.002;6.930;2022-07-01T02:43:08;2.93;;;1.60;;
51913;SDS011;37940;53.002;6.930;2022-07-01T02:45:34;3.28;;;1.60;;
51913;SDS011;37940;53.002;6.930;2022-07-01T02:48:00;3.45;;;1.85;;
51913;SDS011;37940;53.002;6.930;2022-07-01T02:50:26;2.92;;;1.90;;
51913;SDS011;37940;53.002;6.930;2022-07-01T02:52:52;4.72;;;2.10;;
51913;SDS011;37940;53.002;6.930;2022-07-01T02:55:18;3.60;;;1.75;;
51913;SDS011;37940;53.002;6.930;2022-07-01T02:57:44;3.10;;;1.77;;
51913;SDS011;37940;53.002;6.930;2022-07-01T03:00:11;4.18;;;2.15;;
51913;SDS011;37940;53.002;6.930;2022-07-01T03:02:38;3.05;;;2.10;;
51913;SDS011;37940;53.002;6.930;2022-07-01T03:05:05;4.95;;;2.20;;
51913;SDS011;37940;53.002;6.930;2022-07-01T03:10:36;3.25;;;1.90;;
51913;SDS011;37940;53.002;6.930;2022-07-01T03:13:01;2.95;;;1.98;;
51913;SDS011;37940;53.002;6.930;2022-07-01T03:15:27;2.50;;;1.80;;
51913;SDS011;37940;53.002;6.930;2022-07-01T03:17:53;2.97;;;1.90;;
51913;SDS011;37940;53.002;6.930;2022-07-01T03:20:19;4.10;;;2.20;;
51913;SDS011;37940;53.002;6.930;2022-07-01T03:22:45;5.20;;;2.33;;
51913;SDS011;37940;53.002;6.930;2022-07-01T03:25:11;3.95;;;2.50;;
51913;SDS011;37940;53.002;6.930;2022-07-01T03:27:37;4.22;;;2.40;;
51913;SDS011;37940;53.002;6.930;2022-07-01T03:30:06;4.20;;;2.60;;
51913;SDS011;37940;53.002;6.930;2022-07-01T03:32:32;5.00;;;2.45;;
51913;SDS011;37940;53.002;6.930;2022-07-01T03:34:58;3.97;;;2.67;;
51913;SDS011;37940;53.002;6.930;2022-07-01T03:37:24;3.78;;;2.58;;
51913;SDS011;37940;53.002;6.930;2022-07-01T03:39:50;3.90;;;2.60;;
51913;SDS011;37940;53.002;6.930;2022-07-01T03:42:16;4.15;;;3.00;;
51913;SDS011;37940;53.002;6.930;2022-07-01T03:44:43;5.18;;;3.00;;
51913;SDS011;37940;53.002;6.930;2022-07-01T03:47:09;5.15;;;3.15;;
51913;SDS011;37940;53.002;6.930;2022-07-01T03:49:35;5.55;;;3.20;;
51913;SDS011;37940;53.002;6.930;2022-07-01T03:52:04;4.57;;;3.30;;
51913;SDS011;37940;53.002;6.930;2022-07-01T03:54:30;4.70;;;3.20;;
51913;SDS011;37940;53.002;6.930;2022-07-01T03:57:00;6.47;;;3.60;;
51913;SDS011;37940;53.002;6.930;2022-07-01T03:59:31;4.60;;;3.67;;
51913;SDS011;37940;53.002;6.930;2022-07-01T04:01:59;6.38;;;4.25;;
51913;SDS011;37940;53.002;6.930;2022-07-01T04:04:25;10.40;;;3.75;;
51913;SDS011;37940;53.002;6.930;2022-07-01T04:06:55;6.35;;;4.43;;
51913;SDS011;37940;53.002;6.930;2022-07-01T04:09:23;7.72;;;4.68;;
51913;SDS011;37940;53.002;6.930;2022-07-01T04:11:49;5.75;;;4.50;;
51913;SDS011;37940;53.002;6.930;2022-07-01T04:14:16;6.40;;;5.18;;
51913;SDS011;37940;53.002;6.930;2022-07-01T04:16:42;8.63;;;5.57;;
51913;SDS011;37940;53.002;6.930;2022-07-01T04:19:09;9.90;;;7.00;;
51913;SDS011;37940;53.002;6.930;2022-07-01T04:21:36;9.50;;;7.93;;
51913;SDS011;37940;53.002;6.930;2022-07-01T04:24:20;10.85;;;8.65;;
51913;SDS011;37940;53.002;6.930;2022-07-01T04:26:48;11.38;;;9.60;;
51913;SDS011;37940;53.002;6.930;2022-07-01T04:29:14;15.23;;;10.52;;
51913;SDS011;37940;53.002;6.930;2022-07-01T04:31:40;11.82;;;9.93;;
51913;SDS011;37940;53.002;6.930;2022-07-01T04:34:07;13.88;;;11.10;;
51913;SDS011;37940;53.002;6.930;2022-07-01T04:36:33;13.38;;;11.48;;
51913;SDS011;37940;53.002;6.930;2022-07-01T04:38:59;13.82;;;12.07;;
51913;SDS011;37940;53.002;6.930;2022-07-01T04:41:26;13.18;;;11.80;;
51913;SDS011;37940;53.002;6.930;2022-07-01T04:44:11;13.90;;;11.82;;
51913;SDS011;37940;53.002;6.930;2022-07-01T04:46:36;18.23;;;13.43;;
51913;SDS011;37940;53.002;6.930;2022-07-01T04:49:02;15.73;;;13.80;;
51913;SDS011;37940;53.002;6.930;2022-07-01T04:51:28;18.83;;;15.10;;
51913;SDS011;37940;53.002;6.930;2022-07-01T04:53:54;21.92;;;16.52;;
51913;SDS011;37940;53.002;6.930;2022-07-01T04:56:20;21.70;;;17.38;;
51913;SDS011;37940;53.002;6.930;2022-07-01T04:58:46;20.33;;;16.75;;
51913;SDS011;37940;53.002;6.930;2022-07-01T05:01:12;21.10;;;17.40;;
51913;SDS011;37940;53.002;6.930;2022-07-01T05:03:38;20.90;;;16.77;;
51913;SDS011;37940;53.002;6.930;2022-07-01T05:06:04;25.75;;;19.15;;
51913;SDS011;37940;53.002;6.930;2022-07-01T05:08:30;23.02;;;18.42;;
51913;SDS011;37940;53.002;6.930;2022-07-01T05:10:56;27.50;;;19.73;;
51913;SDS011;37940;53.002;6.930;2022-07-01T05:13:21;24.23;;;19.77;;
51913;SDS011;37940;53.002;6.930;2022-07-01T05:15:48;25.05;;;20.02;;
51913;SDS011;37940;53.002;6.930;2022-07-01T05:18:14;24.20;;;20.67;;
51913;SDS011;37940;53.002;6.930;2022-07-01T05:20:58;22.20;;;19.52;;
51913;SDS011;37940;53.002;6.930;2022-07-01T05:23:42;29.85;;;21.00;;
51913;SDS011;37940;53.002;6.930;2022-07-01T05:26:07;26.63;;;20.75;;
51913;SDS011;37940;53.002;6.930;2022-07-01T05:28:33;25.00;;;19.65;;
51913;SDS011;37940;53.002;6.930;2022-07-01T05:30:59;23.67;;;19.83;;
51913;SDS011;37940;53.002;6.930;2022-07-01T05:33:25;22.58;;;19.92;;
51913;SDS011;37940;53.002;6.930;2022-07-01T05:35:52;22.02;;;19.63;;
51913;SDS011;37940;53.002;6.930;2022-07-01T05:38:18;24.70;;;20.17;;
51913;SDS011;37940;53.002;6.930;2022-07-01T05:40:44;21.48;;;19.17;;
51913;SDS011;37940;53.002;6.930;2022-07-01T05:43:10;25.55;;;20.92;;
51913;SDS011;37940;53.002;6.930;2022-07-01T05:45:36;24.95;;;20.60;;
51913;SDS011;37940;53.002;6.930;2022-07-01T05:48:02;23.65;;;19.25;;
51913;SDS011;37940;53.002;6.930;2022-07-01T05:50:28;23.63;;;20.23;;
51913;SDS011;37940;53.002;6.930;2022-07-01T05:52:54;21.48;;;19.17;;
51913;SDS011;37940;53.002;6.930;2022-07-01T05:55:19;26.25;;;20.13;;
51913;SDS011;37940;53.002;6.930;2022-07-01T05:57:45;25.60;;;19.65;;
51913;SDS011;37940;53.002;6.930;2022-07-01T06:00:11;24.77;;;19.63;;
51913;SDS011;37940;53.002;6.930;2022-07-01T06:02:37;22.50;;;20.02;;
51913;SDS011;37940;53.002;6.930;2022-07-01T06:05:03;22.65;;;19.85;;
51913;SDS011;37940;53.002;6.930;2022-07-01T06:07:29;22.42;;;19.55;;
51913;SDS011;37940;53.002;6.930;2022-07-01T06:09:56;23.13;;;19.60;;
51913;SDS011;37940;53.002;6.930;2022-07-01T06:12:22;22.27;;;19.35;;
51913;SDS011;37940;53.002;6.930;2022-07-01T06:14:48;23.23;;;19.50;;
51913;SDS011;37940;53.002;6.930;2022-07-01T06:17:14;22.05;;;19.60;;
51913;SDS011;37940;53.002;6.930;2022-07-01T06:19:41;21.98;;;19.63;;
51913;SDS011;37940;53.002;6.930;2022-07-01T06:22:07;21.17;;;18.73;;
51913;SDS011;37940;53.002;6.930;2022-07-01T06:24:32;22.00;;;19.63;;
51913;SDS011;37940;53.002;6.930;2022-07-01T06:26:58;25.60;;;19.08;;
51913;SDS011;37940;53.002;6.930;2022-07-01T06:29:25;22.17;;;18.92;;
51913;SDS011;37940;53.002;6.930;2022-07-01T06:31:52;21.73;;;19.40;;
51913;SDS011;37940;53.002;6.930;2022-07-01T06:34:18;23.58;;;19.48;;
51913;SDS011;37940;53.002;6.930;2022-07-01T06:36:44;21.73;;;19.48;;
51913;SDS011;37940;53.002;6.930;2022-07-01T06:39:09;21.92;;;19.65;;
51913;SDS011;37940;53.002;6.930;2022-07-01T06:41:35;22.15;;;19.83;;
51913;SDS011;37940;53.002;6.930;2022-07-01T06:44:01;21.25;;;19.05;;
51913;SDS011;37940;53.002;6.930;2022-07-01T06:46:29;21.10;;;18.90;;
51913;SDS011;37940;53.002;6.930;2022-07-01T06:48:55;22.30;;;19.90;;
51913;SDS011;37940;53.002;6.930;2022-07-01T06:51:23;21.55;;;19.35;;
51913;SDS011;37940;53.002;6.930;2022-07-01T06:53:49;21.33;;;18.85;;
51913;SDS011;37940;53.002;6.930;2022-07-01T06:56:17;21.77;;;19.40;;
51913;SDS011;37940;53.002;6.930;2022-07-01T06:58:44;20.80;;;18.58;;
51913;SDS011;37940;53.002;6.930;2022-07-01T07:01:10;22.55;;;18.83;;
51913;SDS011;37940;53.002;6.930;2022-07-01T07:03:35;20.92;;;18.58;;
51913;SDS011;37940;53.002;6.930;2022-07-01T07:06:02;21.90;;;19.50;;
51913;SDS011;37940;53.002;6.930;2022-07-01T07:08:29;18.88;;;16.73;;
51913;SDS011;37940;53.002;6.930;2022-07-01T07:10:55;18.65;;;16.80;;
51913;SDS011;37940;53.002;6.930;2022-07-01T07:13:21;19.70;;;17.60;;
51913;SDS011;37940;53.002;6.930;2022-07-01T07:15:47;18.02;;;16.20;;
51913;SDS011;37940;53.002;6.930;2022-07-01T07:18:13;18.10;;;16.30;;
51913;SDS011;37940;53.002;6.930;2022-07-01T07:20:38;18.92;;;17.00;;
51913;SDS011;37940;53.002;6.930;2022-07-01T07:23:04;18.85;;;16.95;;
51913;SDS011;37940;53.002;6.930;2022-07-01T07:25:30;20.73;;;16.75;;
51913;SDS011;37940;53.002;6.930;2022-07-01T07:27:56;17.63;;;15.40;;
51913;SDS011;37940;53.002;6.930;2022-07-01T07:30:22;21.42;;;17.10;;
51913;SDS011;37940;53.002;6.930;2022-07-01T07:32:48;19.23;;;16.20;;
51913;SDS011;37940;53.002;6.930;2022-07-01T07:35:14;19.05;;;17.05;;
51913;SDS011;37940;53.002;6.930;2022-07-01T07:37:40;19.13;;;16.70;;
51913;SDS011;37940;53.002;6.930;2022-07-01T07:40:07;18.30;;;16.38;;
51913;SDS011;37940;53.002;6.930;2022-07-01T07:42:37;19.30;;;17.20;;
51913;SDS011;37940;53.002;6.930;2022-07-01T07:45:03;19.33;;;17.10;;
51913;SDS011;37940;53.002;6.930;2022-07-01T07:47:32;17.90;;;16.05;;
51913;SDS011;37940;53.002;6.930;2022-07-01T07:49:58;21.05;;;16.40;;
51913;SDS011;37940;53.002;6.930;2022-07-01T07:52:24;18.33;;;16.42;;
51913;SDS011;37940;53.002;6.930;2022-07-01T07:54:49;18.23;;;16.33;;
51913;SDS011;37940;53.002;6.930;2022-07-01T07:57:15;20.55;;;16.65;;
51913;SDS011;37940;53.002;6.930;2022-07-01T07:59:41;18.20;;;16.40;;
51913;SDS011;37940;53.002;6.930;2022-07-01T08:02:07;17.02;;;15.25;;
51913;SDS011;37940;53.002;6.930;2022-07-01T08:04:33;17.92;;;16.13;;
51913;SDS011;37940;53.002;6.930;2022-07-01T08:06:58;17.35;;;15.38;;
51913;SDS011;37940;53.002;6.930;2022-07-01T08:09:24;17.15;;;15.30;;
51913;SDS011;37940;53.002;6.930;2022-07-01T08:11:50;15.68;;;14.18;;
51913;SDS011;37940;53.002;6.930;2022-07-01T08:14:16;17.42;;;15.57;;
51913;SDS011;37940;53.002;6.930;2022-07-01T08:16:42;16.00;;;14.30;;
51913;SDS011;37940;53.002;6.930;2022-07-01T08:19:08;16.95;;;14.20;;
51913;SDS011;37940;53.002;6.930;2022-07-01T08:21:34;15.70;;;13.65;;
51913;SDS011;37940;53.002;6.930;2022-07-01T08:24:00;14.80;;;13.10;;
51913;SDS011;37940;53.002;6.930;2022-07-01T08:26:26;19.75;;;12.85;;
51913;SDS011;37940;53.002;6.930;2022-07-01T08:28:51;16.23;;;11.95;;
51913;SDS011;37940;53.002;6.930;2022-07-01T08:31:17;15.70;;;14.10;;
51913;SDS011;37940;53.002;6.930;2022-07-01T08:33:43;14.50;;;13.00;;
51913;SDS011;37940;53.002;6.930;2022-07-01T08:36:09;15.95;;;13.10;;
51913;SDS011;37940;53.002;6.930;2022-07-01T08:38:36;14.77;;;13.18;;
51913;SDS011;37940;53.002;6.930;2022-07-01T08:41:02;13.90;;;12.50;;
51913;SDS011;37940;53.002;6.930;2022-07-01T08:43:29;14.85;;;12.68;;
51913;SDS011;37940;53.002;6.930;2022-07-01T08:45:55;15.35;;;13.85;;
51913;SDS011;37940;53.002;6.930;2022-07-01T08:48:23;14.88;;;13.30;;
51913;SDS011;37940;53.002;6.930;2022-07-01T08:50:49;13.35;;;11.68;;
51913;SDS011;37940;53.002;6.930;2022-07-01T08:53:15;13.93;;;12.30;;
51913;SDS011;37940;53.002;6.930;2022-07-01T08:55:41;12.68;;;10.98;;
51913;SDS011;37940;53.002;6.930;2022-07-01T08:58:25;14.93;;;11.70;;
51913;SDS011;37940;53.002;6.930;2022-07-01T09:00:52;13.38;;;10.80;;
51913;SDS011;37940;53.002;6.930;2022-07-01T09:03:21;11.80;;;10.20;;
51913;SDS011;37940;53.002;6.930;2022-07-01T09:05:50;11.88;;;10.55;;
51913;SDS011;37940;53.002;6.930;2022-07-01T09:08:17;11.35;;;9.23;;
51913;SDS011;37940;53.002;6.930;2022-07-01T09:10:43;12.98;;;9.90;;
51913;SDS011;37940;53.002;6.930;2022-07-01T09:13:10;10.10;;;8.68;;
51913;SDS011;37940;53.002;6.930;2022-07-01T09:15:38;13.88;;;8.10;;
51913;SDS011;37940;53.002;6.930;2022-07-01T09:18:06;10.23;;;9.13;;
51913;SDS011;37940;53.002;6.930;2022-07-01T09:20:37;10.93;;;8.98;;
51913;SDS011;37940;53.002;6.930;2022-07-01T09:23:06;11.23;;;7.47;;
51913;SDS011;37940;53.002;6.930;2022-07-01T09:28:20;7.70;;;6.20;;
51913;SDS011;37940;53.002;6.930;2022-07-01T09:30:51;9.10;;;6.70;;
51913;SDS011;37940;53.002;6.930;2022-07-01T09:33:25;8.52;;;6.78;;
51913;SDS011;37940;53.002;6.930;2022-07-01T09:35:52;9.43;;;6.30;;
51913;SDS011;37940;53.002;6.930;2022-07-01T09:38:19;10.32;;;7.10;;
51913;SDS011;37940;53.002;6.930;2022-07-01T09:41:19;8.23;;;6.65;;
51913;SDS011;37940;53.002;6.930;2022-07-01T09:43:38;10.32;;;6.20;;
51913;SDS011;37940;53.002;6.930;2022-07-01T09:46:10;9.10;;;5.90;;
51913;SDS011;37940;53.002;6.930;2022-07-01T09:51:06;10.52;;;5.70;;
51913;SDS011;37940;53.002;6.930;2022-07-01T09:53:33;8.80;;;5.50;;
51913;SDS011;37940;53.002;6.930;2022-07-01T09:55:59;10.73;;;7.00;;
51913;SDS011;37940;53.002;6.930;2022-07-01T09:58:25;11.75;;;6.10;;
51913;SDS011;37940;53.002;6.930;2022-07-01T10:00:52;9.68;;;5.80;;
51913;SDS011;37940;53.002;6.930;2022-07-01T10:03:18;10.57;;;5.90;;
51913;SDS011;37940;53.002;6.930;2022-07-01T10:05:56;8.57;;;5.50;;
51913;SDS011;37940;53.002;6.930;2022-07-01T10:14:08;8.57;;;5.22;;
51913;SDS011;37940;53.002;6.930;2022-07-01T10:16:36;8.35;;;5.45;;
51913;SDS011;37940;53.002;6.930;2022-07-01T10:22:00;8.77;;;5.30;;
51913;SDS011;37940;53.002;6.930;2022-07-01T10:24:46;9.93;;;5.07;;
51913;SDS011;37940;53.002;6.930;2022-07-01T10:27:22;8.50;;;4.85;;
51913;SDS011;37940;53.002;6.930;2022-07-01T10:29:49;9.70;;;4.80;;
51913;SDS011;37940;53.002;6.930;2022-07-01T10:32:48;7.30;;;4.68;;
51913;SDS011;37940;53.002;6.930;2022-07-01T10:35:16;8.18;;;4.70;;
51913;SDS011;37940;53.002;6.930;2022-07-01T10:37:58;13.52;;;4.72;;
51913;SDS011;37940;53.002;6.930;2022-07-01T10:40:42;6.17;;;4.20;;
51913;SDS011;37940;53.002;6.930;2022-07-01T10:43:16;6.47;;;3.90;;
51913;SDS011;37940;53.002;6.930;2022-07-01T10:45:56;8.02;;;4.30;;
51913;SDS011;37940;53.002;6.930;2022-07-01T10:48:24;7.55;;;3.80;;
51913;SDS011;37940;53.002;6.930;2022-07-01T10:50:51;7.15;;;4.00;;
51913;SDS011;37940;53.002;6.930;2022-07-01T10:53:18;8.45;;;4.07;;
51913;SDS011;37940;53.002;6.930;2022-07-01T10:55:48;8.70;;;3.85;;
51913;SDS011;37940;53.002;6.930;2022-07-01T10:58:16;8.68;;;4.10;;
51913;SDS011;37940;53.002;6.930;2022-07-01T11:00:44;7.80;;;3.90;;
51913;SDS011;37940;53.002;6.930;2022-07-01T11:03:16;7.22;;;3.88;;
51913;SDS011;37940;53.002;6.930;2022-07-01T11:05:44;7.05;;;3.78;;
51913;SDS011;37940;53.002;6.930;2022-07-01T11:08:11;6.13;;;3.33;;
51913;SDS011;37940;53.002;6.930;2022-07-01T11:10:37;7.93;;;3.65;;
51913;SDS011;37940;53.002;6.930;2022-07-01T11:13:04;8.27;;;3.88;;
51913;SDS011;37940;53.002;6.930;2022-07-01T11:15:30;9.30;;;4.35;;
51913;SDS011;37940;53.002;6.930;2022-07-01T11:17:57;8.57;;;4.07;;
51913;SDS011;37940;53.002;6.930;2022-07-01T11:20:24;5.82;;;3.72;;
51913;SDS011;37940;53.002;6.930;2022-07-01T11:22:51;6.65;;;3.70;;
51913;SDS011;37940;53.002;6.930;2022-07-01T11:25:17;8.18;;;3.78;;
51913;SDS011;37940;53.002;6.930;2022-07-01T11:27:45;5.38;;;3.67;;
51913;SDS011;37940;53.002;6.930;2022-07-01T11:30:12;6.72;;;3.20;;
51913;SDS011;37940;53.002;6.930;2022-07-01T11:32:43;6.90;;;3.10;;
51913;SDS011;37940;53.002;6.930;2022-07-01T11:35:19;5.85;;;2.90;;
51913;SDS011;37940;53.002;6.930;2022-07-01T11:38:25;6.25;;;3.20;;
51913;SDS011;37940;53.002;6.930;2022-07-01T11:41:19;6.70;;;3.00;;
51913;SDS011;37940;53.002;6.930;2022-07-01T11:43:47;8.68;;;3.17;;
51913;SDS011;37940;53.002;6.930;2022-07-01T11:46:13;5.05;;;2.65;;
51913;SDS011;37940;53.002;6.930;2022-07-01T11:48:40;6.97;;;3.10;;
51913;SDS011;37940;53.002;6.930;2022-07-01T11:51:09;13.20;;;3.83;;
51913;SDS011;37940;53.002;6.930;2022-07-01T11:53:48;6.70;;;3.00;;
51913;SDS011;37940;53.002;6.930;2022-07-01T11:56:16;6.38;;;2.83;;
51913;SDS011;37940;53.002;6.930;2022-07-01T11:58:52;7.28;;;2.60;;
51913;SDS011;37940;53.002;6.930;2022-07-01T12:01:22;6.03;;;2.30;;
51913;SDS011;37940;53.002;6.930;2022-07-01T12:03:56;4.13;;;2.10;;
51913;SDS011;37940;53.002;6.930;2022-07-01T12:06:24;4.78;;;2.63;;
51913;SDS011;37940;53.002;6.930;2022-07-01T12:08:51;3.75;;;1.90;;
51913;SDS011;37940;53.002;6.930;2022-07-01T12:11:19;5.53;;;2.40;;
51913;SDS011;37940;53.002;6.930;2022-07-01T12:13:47;5.03;;;2.05;;
51913;SDS011;37940;53.002;6.930;2022-07-01T12:16:14;3.85;;;2.00;;
51913;SDS011;37940;53.002;6.930;2022-07-01T12:18:53;4.05;;;2.17;;
51913;SDS011;37940;53.002;6.930;2022-07-01T12:21:21;5.18;;;1.80;;
51913;SDS011;37940;53.002;6.930;2022-07-01T12:26:32;5.15;;;1.85;;
51913;SDS011;37940;53.002;6.930;2022-07-01T12:28:57;6.20;;;1.95;;
51913;SDS011;37940;53.002;6.930;2022-07-01T12:31:23;5.95;;;1.80;;
51913;SDS011;37940;53.002;6.930;2022-07-01T12:33:49;3.65;;;1.60;;
51913;SDS011;37940;53.002;6.930;2022-07-01T12:36:16;6.43;;;1.95;;
51913;SDS011;37940;53.002;6.930;2022-07-01T12:38:42;3.88;;;1.50;;
51913;SDS011;37940;53.002;6.930;2022-07-01T12:41:27;5.65;;;1.60;;
51913;SDS011;37940;53.002;6.930;2022-07-01T12:44:01;4.30;;;1.63;;
51913;SDS011;37940;53.002;6.930;2022-07-01T12:46:45;4.40;;;1.60;;
51913;SDS011;37940;53.002;6.930;2022-07-01T12:49:18;3.65;;;1.40;;
51913;SDS011;37940;53.002;6.930;2022-07-01T12:51:45;4.22;;;1.30;;
51913;SDS011;37940;53.002;6.930;2022-07-01T12:54:27;5.15;;;1.40;;
51913;SDS011;37940;53.002;6.930;2022-07-01T12:56:57;5.35;;;1.50;;
51913;SDS011;37940;53.002;6.930;2022-07-01T12:59:23;5.78;;;1.60;;
51913;SDS011;37940;53.002;6.930;2022-07-01T13:01:48;6.05;;;1.50;;
51913;SDS011;37940;53.002;6.930;2022-07-01T13:04:22;3.65;;;1.40;;
51913;SDS011;37940;53.002;6.930;2022-07-01T13:06:49;2.58;;;1.45;;
51913;SDS011;37940;53.002;6.930;2022-07-01T13:09:15;5.13;;;1.52;;
51913;SDS011;37940;53.002;6.930;2022-07-01T13:11:40;6.25;;;1.63;;
51913;SDS011;37940;53.002;6.930;2022-07-01T13:14:06;3.78;;;1.30;;
51913;SDS011;37940;53.002;6.930;2022-07-01T13:16:32;4.30;;;1.10;;
51913;SDS011;37940;53.002;6.930;2022-07-01T13:18:57;3.70;;;1.20;;
51913;SDS011;37940;53.002;6.930;2022-07-01T13:21:23;4.85;;;1.15;;
51913;SDS011;37940;53.002;6.930;2022-07-01T13:23:49;3.38;;;1.23;;
51913;SDS011;37940;53.002;6.930;2022-07-01T13:26:14;3.20;;;1.33;;
51913;SDS011;37940;53.002;6.930;2022-07-01T13:28:40;3.90;;;1.15;;
51913;SDS011;37940;53.002;6.930;2022-07-01T13:31:06;3.75;;;1.35;;
51913;SDS011;37940;53.002;6.930;2022-07-01T13:33:31;4.25;;;1.33;;
51913;SDS011;37940;53.002;6.930;2022-07-01T13:35:57;4.68;;;1.40;;
51913;SDS011;37940;53.002;6.930;2022-07-01T13:38:23;5.97;;;1.30;;
51913;SDS011;37940;53.002;6.930;2022-07-01T13:40:49;4.40;;;1.10;;
51913;SDS011;37940;53.002;6.930;2022-07-01T13:43:14;3.10;;;1.10;;
51913;SDS011;37940;53.002;6.930;2022-07-01T13:45:41;3.78;;;1.10;;
51913;SDS011;37940;53.002;6.930;2022-07-01T13:48:07;4.22;;;1.20;;
51913;SDS011;37940;53.002;6.930;2022-07-01T13:50:33;4.95;;;1.27;;
51913;SDS011;37940;53.002;6.930;2022-07-01T13:52:59;6.70;;;1.58;;
51913;SDS011;37940;53.002;6.930;2022-07-01T13:55:24;3.63;;;0.93;;
51913;SDS011;37940;53.002;6.930;2022-07-01T13:57:50;4.03;;;0.90;;
51913;SDS011;37940;53.002;6.930;2022-07-01T14:00:16;2.42;;;1.10;;
51913;SDS011;37940;53.002;6.930;2022-07-01T14:02:42;6.32;;;1.33;;
51913;SDS011;37940;53.002;6.930;2022-07-01T14:05:08;4.18;;;1.17;;
51913;SDS011;37940;53.002;6.930;2022-07-01T14:07:35;3.42;;;1.20;;
51913;SDS011;37940;53.002;6.930;2022-07-01T14:10:01;3.97;;;1.30;;
51913;SDS011;37940;53.002;6.930;2022-07-01T14:12:28;7.55;;;1.95;;
51913;SDS011;37940;53.002;6.930;2022-07-01T14:14:55;5.40;;;1.33;;
51913;SDS011;37940;53.002;6.930;2022-07-01T14:17:22;5.40;;;1.35;;
51913;SDS011;37940;53.002;6.930;2022-07-01T14:19:47;3.58;;;1.05;;
51913;SDS011;37940;53.002;6.930;2022-07-01T14:22:13;3.97;;;1.10;;
51913;SDS011;37940;53.002;6.930;2022-07-01T14:24:39;3.60;;;1.02;;
51913;SDS011;37940;53.002;6.930;2022-07-01T14:27:05;2.72;;;0.95;;
51913;SDS011;37940;53.002;6.930;2022-07-01T14:29:30;9.15;;;1.55;;
51913;SDS011;37940;53.002;6.930;2022-07-01T14:31:56;3.10;;;0.77;;
51913;SDS011;37940;53.002;6.930;2022-07-01T14:34:24;5.18;;;1.40;;
51913;SDS011;37940;53.002;6.930;2022-07-01T14:36:50;5.43;;;1.02;;
51913;SDS011;37940;53.002;6.930;2022-07-01T14:39:16;4.22;;;1.15;;
51913;SDS011;37940;53.002;6.930;2022-07-01T14:41:42;3.78;;;1.10;;
51913;SDS011;37940;53.002;6.930;2022-07-01T14:44:07;3.45;;;1.08;;
51913;SDS011;37940;53.002;6.930;2022-07-01T14:46:33;3.70;;;1.27;;
51913;SDS011;37940;53.002;6.930;2022-07-01T14:48:59;5.40;;;1.48;;
51913;SDS011;37940;53.002;6.930;2022-07-01T14:51:25;4.43;;;1.20;;
51913;SDS011;37940;53.002;6.930;2022-07-01T14:53:51;3.88;;;1.20;;
51913;SDS011;37940;53.002;6.930;2022-07-01T14:56:17;2.95;;;0.98;;
51913;SDS011;37940;53.002;6.930;2022-07-01T14:58:44;4.43;;;1.38;;
51913;SDS011;37940;53.002;6.930;2022-07-01T15:01:11;5.97;;;1.40;;